Terminal Aerodrome Forecast
Issued by NWS

Home | Current Version | Previous Version | Text Only | Print | Product List | Glossary On
Versions: 1 2 3 4 5 6 7 8 9 10 11 12 13 14
000
FTUS43 KGRR 281136
TAFBTL
TAF
KBTL 281136Z 2812/2912 00000KT P6SM BKN110
     FM281500 20007KT P6SM BKN080
     FM282100 19008KT P6SM VCSH BKN110
     FM290000 16005KT 4SM -SHRA OVC060
     FM290300 14005KT 6SM -SHRA OVC035
     FM290500 35004KT P6SM OVC020
     FM290600 33004KT P6SM OVC015=

USA.gov is the U.S. government's official web portal to all federal, state and local government web resources and services.